Thunder radar more information blitzortung!


Löydät sääaseman tiedot myös:

European Weather Network

Finland Weather Exchange

Weather Underground

AWEKAS



Weather Underground säähistoriasivu

Päivittäin yhteenveto Kesäkuu 8, 2017 Yksiköt:  Metriset    Englantilaiset   Molemmat
« Edellinen Päivä
Seuraava Päivä »
Päivittäin Viikoittain Kuukausittain Vuosittain Mukautettu
  Korkea: Matala: Keskiarvo:
Lämpötila: -17.8 °C -11.8 °C -8.9 °C
Kastepiste: -17.8 °C -14.1 °C -12.3 °C
Kosteus: Humidity % 38 % 69 %
Tuulen nopeus: 0 km/h 0 km/h 3.2 km/h
Tuulenpuuska: 0 km/h - -
Tuuli:- - South
Ilmanpaine: 0 hPa 34269.7 hPa -
Sade: 12.7 mm    
Historical Graphs
 
 
Taulukkotiedot Kesäkuu 8, 2017
Aika Lämpötila Kastepiste Ilmanpaine Tuuli Tuulen nopeus Tuulenpuuska Kosteus Sademäärä (tunneittain)
-17.8 °C -17.8 °C 0 hPa Calm     Humidity % 0 mm
00:00 -8.1 °C -12.4 °C 34279.9 hPa Calm     60 % 0 mm
00:15 -8.3 °C -12.3 °C 34293.4 hPa Calm     62 % 0 mm
00:30 -8.6 °C -12.5 °C 34293.4 hPa Calm     63 % 0 mm
00:45 -9.1 °C -12.6 °C 34293.4 hPa Calm     66 % 0 mm
01:00 -9.6 °C -12.6 °C 34279.9 hPa Calm     70 % 0 mm
01:15 -10 °C -12.7 °C 34279.9 hPa Calm     73 % 0 mm
01:30 -10.4 °C -12.7 °C 34279.9 hPa Calm     76 % 0 mm
01:45 -10.8 °C -13 °C 34279.9 hPa Calm     77 % 0 mm
02:00 -11 °C -13 °C 34279.9 hPa Calm     79 % 0 mm
02:15 -11.2 °C -13.1 °C 34279.9 hPa Calm     79 % 0 mm
02:30 -11.4 °C -13.2 °C 34279.9 hPa Calm     81 % 0 mm
02:45 -11.5 °C -13.2 °C 34279.9 hPa Calm     82 % 0 mm
03:00 -11.7 °C -13.3 °C 34279.9 hPa Calm     82 % 0 mm
03:15 -11.8 °C -13.3 °C 34279.9 hPa Calm     83 % 0 mm
03:30 -11.7 °C -13.2 °C 34279.9 hPa Calm     83 % 0 mm
03:45 -11.7 °C -13.2 °C 34279.9 hPa Calm     83 % 0 mm
04:00 -11.7 °C -13.3 °C 34279.9 hPa Calm     83 % 0 mm
04:15 -11.8 °C -13.2 °C 34293.4 hPa Calm     84 % 0 mm
04:30 -11.4 °C -13.1 °C 34293.4 hPa Calm     81 % 0 mm
04:45 -11.5 °C -13.1 °C 34293.4 hPa Calm     82 % 0 mm
05:00 -11.6 °C -13.2 °C 34293.4 hPa Calm     82 % 0 mm
05:15 -11.4 °C -13.1 °C 34293.4 hPa Calm     82 % 0 mm
05:30 -11.2 °C -12.8 °C 34293.4 hPa Calm   2.6 km/h 82 % 0 mm
05:45 -10.7 °C -12.8 °C 34279.9 hPa Calm   5.1 km/h 78 % 0 mm
06:00 -10.2 °C -12.7 °C 34279.9 hPa Calm   12.9 km/h 74 % 0 mm
06:15 -9.8 °C -12.7 °C 34279.9 hPa Calm   12.9 km/h 71 % 0 mm
06:30 -9.5 °C -12.5 °C 34279.9 hPa SSE 2.6 km/h 12.9 km/h 70 % 0 mm
07:00 -9.3 °C -12.2 °C 34279.9 hPa Calm   2.6 km/h 71 % 0 mm
07:15 -9.2 °C -12.1 °C 34279.9 hPa Calm   10.3 km/h 71 % 0 mm
07:30 -8.8 °C -12.2 °C 34279.9 hPa SSE 2.6 km/h 20.8 km/h 67 % 0 mm
07:45 -8.6 °C -12 °C 34279.9 hPa Calm   18.2 km/h 67 % 0 mm
08:00 -8.4 °C -11.9 °C 34279.9 hPa Calm   2.6 km/h 66 % 0 mm
08:15 -8.2 °C -11.7 °C 34279.9 hPa Calm   2.6 km/h 67 % 0 mm
08:30 -8.2 °C -11.7 °C 34279.9 hPa Calm     66 % 0 mm
08:45 -7.9 °C -11.7 °C 34279.9 hPa Calm   10.3 km/h 65 % 0 mm
09:00 -7.7 °C -11.6 °C 34279.9 hPa Calm   12.9 km/h 63 % 0 mm
09:15 -7.4 °C -12.1 °C 34269.7 hPa SSE 2.6 km/h 10.3 km/h 58 % 0 mm
09:30 -7.3 °C -12.2 °C 34279.9 hPa East 2.6 km/h 18.2 km/h 57 % 0 mm
09:45 -7.1 °C -12.2 °C 34279.9 hPa SSE 2.6 km/h 18.2 km/h 55 % 0 mm
10:00 -6.9 °C -12.2 °C 34279.9 hPa SSE 2.6 km/h 18.2 km/h 54 % 0 mm
10:15 -6.7 °C -12.8 °C 34279.9 hPa SE 2.6 km/h 12.9 km/h 49 % 0 mm
10:30 -6.3 °C -12.5 °C 34279.9 hPa SSE 2.6 km/h 23.3 km/h 49 % 0 mm
10:45 -6.2 °C -13.1 °C 34269.7 hPa SSE 2.6 km/h 18.2 km/h 45 % 0 mm
11:00 -6.3 °C -13.3 °C 34269.7 hPa SSE 7.7 km/h 20.8 km/h 44 % 0 mm
11:15 -6.2 °C -13.1 °C 34269.7 hPa South 7.7 km/h 20.8 km/h 45 % 0 mm
11:30 -6.1 °C -13.2 °C 34279.9 hPa South 7.7 km/h 23.3 km/h 44 % 0 mm
11:45 -6.2 °C -12.7 °C 34279.9 hPa SSE 5.1 km/h 20.8 km/h 47 % 0 mm
12:00 -6.2 °C -13.1 °C 34279.9 hPa South 10.3 km/h 20.8 km/h 45 % 0 mm
12:15 -6 °C -13.5 °C 34279.9 hPa South 5.1 km/h 20.8 km/h 42 % 0 mm
12:30 -5.9 °C -13.6 °C 34279.9 hPa South 5.1 km/h 23.3 km/h 41 % 0 mm
12:45 -5.9 °C -13.7 °C 34279.9 hPa SSE 5.1 km/h 28.5 km/h 40 % 0 mm
13:00 -5.8 °C -13.7 °C 34279.9 hPa SSW 7.7 km/h 33.6 km/h 40 % 0 mm
13:15 -5.7 °C -14.1 °C 34279.9 hPa South 5.1 km/h 12.9 km/h 38 % 0 mm
13:30 -6.2 °C -13 °C 34279.9 hPa SSW 7.7 km/h 18.2 km/h 45 % 0 mm
13:45 -6.3 °C -12.9 °C 34279.9 hPa SSW 7.7 km/h 25.9 km/h 46 % 0 mm
14:00 -6.4 °C -12.6 °C 34279.9 hPa SSW 10.3 km/h 28.5 km/h 49 % 0 mm
14:15 -6.4 °C -11.8 °C 34279.9 hPa SSW 12.9 km/h 23.3 km/h 54 % 0 mm
14:30 -6.8 °C -11.4 °C 34293.4 hPa SW 5.1 km/h 20.8 km/h 59 % 0 mm
14:45 -7.3 °C -11.5 °C 34293.4 hPa SSW 12.9 km/h 31.1 km/h 61 % 0 mm
15:00 -7.5 °C -11.5 °C 34293.4 hPa SSW 10.3 km/h 33.6 km/h 63 % 0 mm
15:15 -7.9 °C -11.6 °C 34303.6 hPa SSW 12.9 km/h 31.1 km/h 65 % 0 mm
15:30 -8.2 °C -11.6 °C 34303.6 hPa SSW 12.9 km/h 36.2 km/h 68 % 0 mm
15:45 -8.4 °C -11.4 °C 34303.6 hPa SSW 10.3 km/h 31.1 km/h 70 % 0 mm
16:00 -8.3 °C -11.2 °C 34303.6 hPa SSW 10.3 km/h 33.6 km/h 71 % 0 mm
16:15 -8.3 °C -11.2 °C 34303.6 hPa SSW 10.3 km/h 23.3 km/h 72 % 0 mm
16:30 -8.3 °C -11.6 °C 34303.6 hPa SSW 7.7 km/h 23.3 km/h 68 % 0 mm
16:45 -8.3 °C -11.7 °C 34303.6 hPa SSW 7.7 km/h 31.1 km/h 67 % 0 mm
17:00 -8.4 °C -11.8 °C 34303.6 hPa South 12.9 km/h 44.1 km/h 67 % 0 mm
17:15 -8.5 °C -11.7 °C 34303.6 hPa SSW 15.6 km/h 28.5 km/h 69 % 0 mm
17:30 -8.8 °C -11.6 °C 34303.6 hPa South 10.3 km/h 28.5 km/h 72 % 0 mm
17:45 -9.1 °C -11.5 °C 34303.6 hPa SSW 12.9 km/h 33.6 km/h 75 % 0 mm
18:00 -9.2 °C -11.3 °C 34303.6 hPa SW 7.7 km/h 28.5 km/h 78 % 0 mm
18:15 -9.3 °C -11.4 °C 34303.6 hPa SSW 7.7 km/h 20.8 km/h 78 % 0 mm
18:30 -9.3 °C -11.4 °C 34303.6 hPa South 7.7 km/h 20.8 km/h 78 % 0 mm
18:45 -9.2 °C -11.3 °C 34303.6 hPa SW 2.6 km/h 12.9 km/h 78 % 0 mm
19:00 -9.1 °C -11.3 °C 34303.6 hPa Calm   2.6 km/h 78 % 0 mm
19:15 -9.1 °C -11.3 °C 34303.6 hPa Calm   10.3 km/h 77 % 0 mm
19:30 -9.1 °C -11.3 °C 34313.7 hPa Calm   5.1 km/h 77 % 0 mm
19:45 -9.1 °C -11.4 °C 34303.6 hPa South 2.6 km/h 10.3 km/h 76 % 0 mm
20:00 -9 °C -11.3 °C 34303.6 hPa Calm   2.6 km/h 76 % 0 mm
20:15 -9 °C -11.3 °C 34303.6 hPa Calm   10.3 km/h 76 % 0 mm
20:30 -9 °C -11.3 °C 34303.6 hPa Calm     76 % 0 mm
20:45 -9.1 °C -11.4 °C 34313.7 hPa Calm   2.6 km/h 76 % 0 mm
21:00 -9.1 °C -11.5 °C 34313.7 hPa SE 2.6 km/h 18.2 km/h 76 % 0 mm
21:15 -9.2 °C -11.1 °C 34313.7 hPa Calm   10.3 km/h 80 % 7.62 mm
21:30 -9.6 °C -11.1 °C 34313.7 hPa South 2.6 km/h 18.2 km/h 84 % 12.7 mm
21:45 -9.9 °C -11.1 °C 34327.3 hPa Calm   5.1 km/h 87 % 12.7 mm
22:00 -10.1 °C -11.1 °C 34327.3 hPa Calm     89 % 12.7 mm
22:15 -10.2 °C -11.1 °C 34327.3 hPa Calm     90 % 7.62 mm
22:30 -10.3 °C -11.2 °C 34327.3 hPa Calm     90 % 0 mm
22:45 -10.3 °C -11.1 °C 34327.3 hPa Calm     92 % 0 mm
23:00 -10.4 °C -11.1 °C 34327.3 hPa Calm     92 % 0 mm
23:15 -10.4 °C -11.2 °C 34327.3 hPa Calm     92 % 0 mm
23:30 -10.5 °C -11.2 °C 34327.3 hPa Calm     93 % 7.62 mm
23:45 -10.6 °C -11.2 °C 34327.3 hPa Calm     93 % 7.62 mm
Esan sääasema
Terveisin Weather Underground - 2.75 mb

Alkuperäinen skripti  Jim McMurry - jmcmurry@mwt.net Sovitettu myös templatelle  Wim van der Kuil - Leuven-Template.eu

Laitteet joita käytämme:

Sääasema
Davis VP2

Sääasemaohjelma
Cumulus

Sääaseman tietokone
Asus EeePC

Palveluntarjoaja
Suncomet

Davis VP2

Cumulus

Asus EeePC

Suncomet